Time;durP1;ratioP1;P1;durP2;ratioP2;P2;SDS_P1;SDS_P2;PMS_P1;PMS_P2;Temp;Humidity;BMP_temperature;BMP_pressure;BME280_temperature;BME280_humidity;BME280_pressure;Samples;Min_cycle;Max_cycle;Signal;HPM_P1;HPM_P2
2022/12/08 00:02:00;;;;;;;4.55;0.93;;;;;;;3.83;100.00;101076.75;5069834;28;20069;-37
2022/12/08 00:04:25;;;;;;;3.20;1.20;;;;;;;3.81;100.00;101073.38;5061420;28;20502;-37
2022/12/08 00:09:37;;;;;;;1.27;0.93;;;;;;;3.77;100.00;101061.31;5052107;28;20039;-37
2022/12/08 00:12:05;;;;;;;2.42;1.02;;;;;;;3.74;100.00;101057.94;5055804;28;20032;-39
2022/12/08 00:14:33;;;;;;;4.57;1.42;;;;;;;3.69;100.00;101048.66;5050918;28;20146;-38
2022/12/08 00:16:59;;;;;;;3.92;0.95;;;;;;;3.66;100.00;101046.25;5055537;28;20402;-39
2022/12/08 00:19:25;;;;;;;6.50;1.70;;;;;;;3.64;100.00;101040.22;5059985;28;20070;-40
2022/12/08 00:21:51;;;;;;;7.22;1.40;;;;;;;3.61;100.00;101036.00;5070658;28;20048;-38
2022/12/08 00:24:17;;;;;;;2.33;1.10;;;;;;;3.58;100.00;101030.97;5070142;28;20383;-40
2022/12/08 00:26:42;;;;;;;5.30;1.40;;;;;;;3.57;100.00;101023.09;5076795;28;20080;-39
2022/12/08 00:29:08;;;;;;;5.68;1.42;;;;;;;3.57;100.00;101020.44;5054771;28;20025;-39
2022/12/08 00:31:33;;;;;;;10.32;1.48;;;;;;;3.59;100.00;101016.66;5050806;28;20032;-39
2022/12/08 00:33:59;;;;;;;5.05;1.55;;;;;;;3.60;100.00;101010.34;5049240;28;20531;-40
2022/12/08 00:36:24;;;;;;;6.65;1.38;;;;;;;3.59;100.00;101000.69;5068500;28;20036;-40
2022/12/08 00:38:50;;;;;;;3.92;1.35;;;;;;;3.59;100.00;101002.53;5072324;28;20049;-39
2022/12/08 00:41:18;;;;;;;12.07;1.40;;;;;;;3.59;100.00;100995.38;5071610;28;20029;-38
2022/12/08 00:43:44;;;;;;;5.15;1.58;;;;;;;3.61;100.00;101014.72;5069249;28;20036;-40
2022/12/08 00:46:10;;;;;;;4.15;2.42;;;;;;;3.67;100.00;101011.50;5054405;28;20028;-38
2022/12/08 00:48:36;;;;;;;7.43;1.50;;;;;;;3.86;100.00;101017.91;5050101;28;20021;-40
2022/12/08 00:51:01;;;;;;;8.38;1.77;;;;;;;3.89;100.00;101017.63;5050269;28;20029;-39
2022/12/08 00:53:26;;;;;;;8.88;2.33;;;;;;;3.89;100.00;101021.13;5050114;28;20508;-39
2022/12/08 00:55:52;;;;;;;4.45;1.88;;;;;;;3.90;100.00;101029.97;5050174;28;20131;-39
2022/12/08 00:58:17;;;;;;;9.50;2.17;;;;;;;3.97;100.00;101010.63;5050327;28;20123;-38
2022/12/08 01:00:43;;;;;;;7.07;2.00;;;;;;;3.96;100.00;101002.81;5049356;28;20033;-39
2022/12/08 01:03:09;;;;;;;8.15;1.23;;;;;;;3.98;100.00;101008.84;5050615;28;20465;-40
2022/12/08 01:05:35;;;;;;;6.65;1.20;;;;;;;3.96;100.00;101008.13;5050228;28;20192;-40
2022/12/08 01:08:00;;;;;;;8.98;1.75;;;;;;;3.95;100.00;100993.97;5050028;28;20549;-40
2022/12/08 01:10:26;;;;;;;2.40;0.60;;;;;;;4.06;100.00;100986.88;5050120;28;20025;-40
2022/12/08 01:12:51;;;;;;;2.17;0.40;;;;;;;4.08;100.00;100976.91;5065021;28;20025;-37
2022/12/08 01:15:16;;;;;;;3.42;0.47;;;;;;;4.07;100.00;100983.22;5070032;28;20056;-36
2022/12/08 01:17:42;;;;;;;6.57;0.60;;;;;;;4.08;100.00;100977.75;5070193;28;20041;-36
2022/12/08 01:20:07;;;;;;;1.88;0.30;;;;;;;4.09;100.00;100967.94;5068926;28;20051;-36
2022/12/08 01:22:34;;;;;;;4.00;0.50;;;;;;;4.11;100.00;100964.16;5070054;28;20033;-36
2022/12/08 01:25:00;;;;;;;4.20;0.22;;;;;;;4.10;100.00;100957.13;5057669;28;20033;-39
2022/12/08 01:27:25;;;;;;;3.03;0.57;;;;;;;4.13;100.00;100958.69;5049820;28;20051;-37
2022/12/08 01:29:50;;;;;;;4.93;0.30;;;;;;;4.12;100.00;100954.34;5049766;28;20028;-39
2022/12/08 01:32:16;;;;;;;4.15;0.43;;;;;;;4.15;100.00;100954.06;5051644;28;20037;-39
2022/12/08 01:34:41;;;;;;;2.15;0.38;;;;;;;4.18;100.00;100943.97;5053721;28;20025;-39
2022/12/08 01:37:07;;;;;;;4.20;0.50;;;;;;;4.21;100.00;100944.69;5051941;28;20071;-37
2022/12/08 01:39:32;;;;;;;1.75;0.40;;;;;;;4.26;100.00;100935.28;5053058;28;20028;-38
2022/12/08 01:41:57;;;;;;;3.55;0.52;;;;;;;4.31;100.00;100930.38;5059196;28;20360;-38
2022/12/08 01:44:23;;;;;;;6.97;1.10;;;;;;;4.45;100.00;100941.63;5063193;28;20036;-37
2022/12/08 01:46:48;;;;;;;14.07;1.60;;;;;;;4.51;100.00;100941.91;5062739;28;20022;-39
2022/12/08 01:49:21;;;;;;;8.55;0.80;;;;;;;4.54;100.00;100948.78;5066626;28;20379;-39
2022/12/08 01:51:51;;;;;;;12.82;1.38;;;;;;;4.64;100.00;100935.47;5055180;28;20040;-39
2022/12/08 01:54:17;;;;;;;4.05;0.88;;;;;;;4.67;100.00;100938.69;5070396;28;20115;-36
2022/12/08 01:56:54;;;;;;;6.93;0.80;;;;;;;4.70;100.00;100937.56;5074030;28;20111;-39
2022/12/08 01:59:19;;;;;;;12.48;0.80;;;;;;;4.70;100.00;100946.38;5072231;28;20028;-38
2022/12/08 02:01:45;;;;;;;6.13;0.80;;;;;;;4.70;100.00;100945.56;5073823;28;20111;-39
2022/12/08 02:04:10;;;;;;;5.20;0.57;;;;;;;4.66;100.00;100953.00;5069669;28;20482;-38
2022/12/08 02:06:38;;;;;;;9.52;1.00;;;;;;;4.68;100.00;100944.84;5052191;28;20036;-39
2022/12/08 02:09:04;;;;;;;;;;;;;;;4.64;100.00;100946.13;5052731;28;20021;-41
2022/12/08 02:11:29;;;;;;;7.68;0.60;;;;;;;4.54;100.00;100940.78;5084000;28;20391;-42
2022/12/08 02:13:56;;;;;;;5.30;0.50;;;;;;;4.47;100.00;100929.84;5053416;28;20469;-43
2022/12/08 02:16:37;;;;;;;4.22;0.70;;;;;;;4.43;100.00;100939.09;5057105;28;20021;-43
2022/12/08 02:19:44;;;;;;;12.13;1.23;;;;;;;4.36;100.00;100938.81;5056826;28;20115;-41
2022/12/08 02:22:39;;;;;;;5.75;0.80;;;;;;;4.33;100.00;100932.94;5066152;28;20037;-42
2022/12/08 02:25:12;;;;;;;7.43;0.65;;;;;;;4.36;100.00;100938.81;5052275;28;20032;-44
2022/12/08 02:27:55;;;;;;;3.97;0.63;;;;;;;4.28;100.00;100927.16;5060908;28;20164;-43
2022/12/08 02:30:49;;;;;;;5.03;0.60;;;;;;;4.20;100.00;100927.03;5061901;28;20055;-42
2022/12/08 02:33:36;;;;;;;4.95;0.77;;;;;;;4.12;100.00;100922.38;5072537;28;20079;-41
2022/12/08 02:36:16;;;;;;;3.20;0.38;;;;;;;4.10;100.00;100921.69;5064933;28;20029;-40
2022/12/08 02:38:48;;;;;;;5.78;0.47;;;;;;;4.07;100.00;100922.78;5070300;28;20020;-40
2022/12/08 02:41:26;;;;;;;13.20;0.68;;;;;;;4.09;100.00;100920.84;5060844;28;20033;-43
2022/12/08 02:44:03;;;;;;;;;;;;;;;4.11;100.00;100907.41;5054681;28;20440;-45
2022/12/08 02:46:36;;;;;;;10.10;0.98;;;;;;;4.05;100.00;100906.09;5063334;28;19912;-44
2022/12/08 02:49:02;;;;;;;6.68;0.77;;;;;;;4.00;100.00;100912.81;5064499;28;20049;-44
2022/12/08 02:51:27;;;;;;;5.18;0.80;;;;;;;3.92;100.00;100905.53;5060047;28;20125;-44
2022/12/08 02:53:53;;;;;;;9.10;0.98;;;;;;;3.96;100.00;100906.94;5060400;28;20507;-45
2022/12/08 02:56:51;;;;;;;4.53;0.50;;;;;;;3.99;100.00;100901.34;5055977;28;20357;-43
2022/12/08 02:59:32;;;;;;;5.00;0.57;;;;;;;4.03;100.00;100892.09;5051195;28;20043;-41
2022/12/08 03:02:20;;;;;;;3.55;0.80;;;;;;;4.12;100.00;100890.44;5065118;28;20081;-40
2022/12/08 03:04:58;;;;;;;7.13;0.82;;;;;;;4.22;100.00;100888.63;5070701;28;20047;-40
2022/12/08 03:07:41;;;;;;;8.35;1.10;;;;;;;4.28;100.00;100887.22;5069769;28;20077;-39
2022/12/08 03:10:16;;;;;;;6.78;0.50;;;;;;;4.30;100.00;100883.41;5067125;28;20417;-37
2022/12/08 03:12:47;;;;;;;7.20;0.60;;;;;;;4.30;100.00;100882.59;5051342;28;20033;-39
2022/12/08 03:15:15;;;;;;;7.40;0.60;;;;;;;4.30;100.00;100885.25;5054568;28;20540;-39
2022/12/08 03:17:45;;;;;;;10.68;0.90;;;;;;;4.28;100.00;100881.88;5070832;28;20028;-37
2022/12/08 03:20:13;;;;;;;13.40;1.63;;;;;;;4.30;100.00;100877.25;5069453;28;20040;-37
2022/12/08 03:22:39;;;;;;;8.18;0.95;;;;;;;4.31;100.00;100878.94;5065059;28;20041;-39
2022/12/08 03:25:05;;;;;;;7.47;0.80;;;;;;;4.30;100.00;100871.94;5050290;28;20040;-38
2022/12/08 03:27:31;;;;;;;10.30;0.93;;;;;;;4.33;100.00;100872.47;5054049;28;20056;-40
2022/12/08 03:29:58;;;;;;;7.55;0.82;;;;;;;4.36;100.00;100863.38;5056685;28;20032;-36
2022/12/08 03:32:43;;;;;;;4.45;0.90;;;;;;;4.36;100.00;100866.03;5070390;28;20025;-39
2022/12/08 03:35:11;;;;;;;6.50;0.70;;;;;;;4.37;100.00;100857.91;5068059;28;20025;-39
2022/12/08 03:37:38;;;;;;;11.52;1.25;;;;;;;4.40;100.00;100859.44;5058125;28;20467;-39
2022/12/08 03:40:07;;;;;;;8.15;1.25;;;;;;;4.38;100.00;100856.06;5072299;28;20025;-38
2022/12/08 03:42:32;;;;;;;3.78;0.60;;;;;;;4.37;100.00;100852.56;5061062;28;20090;-38
2022/12/08 03:44:58;;;;;;;5.28;0.73;;;;;;;4.38;100.00;100851.59;5050187;28;20021;-39
2022/12/08 03:47:23;;;;;;;7.07;1.00;;;;;;;4.34;100.00;100846.66;5053422;28;20017;-40
2022/12/08 03:49:48;;;;;;;3.08;0.40;;;;;;;4.35;100.00;100848.38;5052250;28;20127;-40
2022/12/08 03:52:14;;;;;;;4.32;0.60;;;;;;;4.36;100.00;100836.72;5060388;28;20149;-38
2022/12/08 03:54:39;;;;;;;16.10;0.68;;;;;;;4.38;100.00;100832.09;5065627;28;20036;-39
2022/12/08 03:57:05;;;;;;;7.18;0.82;;;;;;;4.40;100.00;100833.63;5067990;28;20550;-39
2022/12/08 03:59:30;;;;;;;5.15;0.60;;;;;;;4.45;100.00;100843.88;5059644;28;20429;-39
2022/12/08 04:01:55;;;;;;;4.50;0.77;;;;;;;4.55;100.00;100839.34;5071553;28;20492;-38
2022/12/08 04:04:21;;;;;;;7.60;0.50;;;;;;;4.59;100.00;100840.75;5058283;28;20056;-39
2022/12/08 04:06:46;;;;;;;3.72;0.50;;;;;;;4.59;100.00;100827.44;5054291;28;20028;-40
2022/12/08 04:09:11;;;;;;;3.55;1.05;;;;;;;4.58;100.00;100827.56;5051389;28;20029;-40
2022/12/08 04:11:37;;;;;;;2.97;0.30;;;;;;;4.49;100.00;100834.59;5060482;28;20472;-38
2022/12/08 04:14:02;;;;;;;5.35;0.28;;;;;;;4.43;100.00;100834.34;5056488;28;20570;-39
2022/12/08 04:16:28;;;;;;;5.15;0.30;;;;;;;4.42;100.00;100844.13;5054513;28;20025;-37
2022/12/08 04:18:53;;;;;;;2.25;0.20;;;;;;;4.38;100.00;100843.59;5070925;28;20082;-40
2022/12/08 04:21:19;;;;;;;6.18;0.68;;;;;;;4.34;100.00;100838.69;5062589;28;20112;-38
2022/12/08 04:23:44;;;;;;;1.33;0.38;;;;;;;4.28;100.00;100842.75;5050891;28;20068;-39
2022/12/08 04:26:12;;;;;;;6.97;0.85;;;;;;;4.18;100.00;100836.59;5057850;28;20063;-39
2022/12/08 04:28:37;;;;;;;6.50;1.23;;;;;;;4.12;100.00;100827.34;5070770;28;20035;-40
2022/12/08 04:31:03;;;;;;;3.03;0.80;;;;;;;4.05;100.00;100822.72;5079959;28;20107;-40
2022/12/08 04:33:28;;;;;;;6.85;1.00;;;;;;;4.02;100.00;100826.50;5083904;28;20170;-40
2022/12/08 04:35:54;;;;;;;1.35;0.40;;;;;;;4.03;100.00;100819.34;5070590;28;20501;-37
2022/12/08 04:38:19;;;;;;;2.50;0.40;;;;;;;3.99;100.00;100816.13;5070608;28;20024;-37
2022/12/08 04:40:45;;;;;;;8.48;1.60;;;;;;;3.99;100.00;100810.78;5070986;28;20036;-38
2022/12/08 04:43:10;;;;;;;3.25;0.30;;;;;;;4.00;100.00;100812.47;5058268;28;20090;-37
2022/12/08 04:45:39;;;;;;;5.03;0.50;;;;;;;4.00;100.00;100796.50;5072647;28;20048;-39
2022/12/08 04:48:04;;;;;;;3.15;0.47;;;;;;;4.02;100.00;100802.53;5064320;28;20489;-39
2022/12/08 04:50:30;;;;;;;3.25;0.40;;;;;;;4.01;100.00;100803.53;5051075;28;20037;-41
2022/12/08 04:52:55;;;;;;;6.38;0.50;;;;;;;3.98;100.00;100801.13;5050325;28;20380;-36
2022/12/08 04:55:20;;;;;;;3.63;0.60;;;;;;;3.98;100.00;100803.81;5061976;28;20024;-40
2022/12/08 04:57:46;;;;;;;7.03;0.50;;;;;;;3.95;100.00;100799.59;5090291;28;20162;-38
2022/12/08 05:00:12;;;;;;;1.92;0.50;;;;;;;3.95;100.00;100796.94;5074913;28;20025;-39
2022/12/08 05:02:38;;;;;;;2.70;0.60;;;;;;;3.99;100.00;100794.00;5089365;28;20432;-39
2022/12/08 05:05:04;;;;;;;3.88;0.40;;;;;;;4.00;100.00;100796.50;5058207;28;20043;-39
2022/12/08 05:07:29;;;;;;;7.45;0.52;;;;;;;4.00;100.00;100796.50;5050232;28;20499;-39
2022/12/08 05:09:54;;;;;;;6.85;0.93;;;;;;;4.01;100.00;100792.88;5050061;28;20021;-38
2022/12/08 05:12:20;;;;;;;6.07;0.63;;;;;;;4.02;100.00;100786.53;5050389;28;20025;-38
2022/12/08 05:14:46;;;;;;;5.97;0.50;;;;;;;4.03;100.00;100782.06;5050525;28;20033;-40
2022/12/08 05:17:11;;;;;;;9.30;0.40;;;;;;;4.07;100.00;100775.47;5052975;28;20033;-38
2022/12/08 05:19:36;;;;;;;12.02;0.70;;;;;;;4.07;100.00;100788.78;5054269;28;20029;-40
2022/12/08 05:22:02;;;;;;;5.30;0.50;;;;;;;4.08;100.00;100786.00;5062448;28;20029;-40
2022/12/08 05:24:28;;;;;;;7.60;0.80;;;;;;;4.17;100.00;100795.78;5065660;28;20020;-40
2022/12/08 05:26:53;;;;;;;5.47;0.93;;;;;;;4.17;100.00;100787.81;5072595;28;20055;-37
2022/12/08 05:29:19;;;;;;;4.85;0.80;;;;;;;4.14;100.00;100792.59;5070484;28;20028;-38
2022/12/08 05:31:44;;;;;;;7.65;0.73;;;;;;;4.18;100.00;100799.28;5071653;28;20060;-40
2022/12/08 05:34:09;;;;;;;7.65;0.70;;;;;;;4.16;100.00;100807.44;5052260;28;20028;-37
2022/12/08 05:36:35;;;;;;;1.95;0.40;;;;;;;4.13;100.00;100813.06;5052210;28;20061;-40
2022/12/08 05:39:00;;;;;;;1.85;0.45;;;;;;;4.03;100.00;100824.66;5053994;28;20052;-39
2022/12/08 05:41:25;;;;;;;5.55;0.63;;;;;;;3.89;100.00;100820.59;5071605;28;20036;-44
2022/12/08 05:43:51;;;;;;;10.95;0.85;;;;;;;3.80;100.00;100829.44;5083913;28;20032;-45
2022/12/08 05:46:16;;;;;;;4.07;0.28;;;;;;;3.61;100.00;100811.63;5092801;28;20038;-45
2022/12/08 05:48:42;;;;;;;10.77;1.15;;;;;;;3.54;100.00;100819.28;5073628;28;20482;-43
2022/12/08 05:51:16;;;;;;;2.60;0.30;;;;;;;3.40;100.00;100812.56;5066181;28;20452;-44
2022/12/08 05:53:42;;;;;;;7.50;0.68;;;;;;;3.38;100.00;100813.66;5063049;28;20029;-44
2022/12/08 05:56:07;;;;;;;2.88;0.45;;;;;;;3.35;100.00;100821.91;5070220;28;20064;-45
2022/12/08 05:58:32;;;;;;;4.10;0.50;;;;;;;3.29;100.00;100818.81;5066407;28;20052;-45
2022/12/08 06:00:58;;;;;;;6.93;1.50;;;;;;;3.25;100.00;100821.88;5059616;28;20029;-44
2022/12/08 06:03:24;;;;;;;9.00;0.90;;;;;;;3.20;100.00;100819.63;5071114;28;20384;-44
2022/12/08 06:05:49;;;;;;;4.20;0.47;;;;;;;3.18;100.00;100820.72;5073456;28;20154;-44
2022/12/08 06:08:14;;;;;;;7.43;1.10;;;;;;;3.18;100.00;100820.72;5073176;28;20032;-44
2022/12/08 06:10:42;;;;;;;4.90;1.15;;;;;;;3.15;100.00;100816.53;5067125;28;20039;-44
2022/12/08 06:13:08;;;;;;;5.88;0.60;;;;;;;3.17;100.00;100817.22;5053350;28;20025;-43
2022/12/08 06:15:37;;;;;;;1.23;0.40;;;;;;;3.15;100.00;100810.38;5053288;28;20029;-41
2022/12/08 06:18:03;;;;;;;4.75;0.50;;;;;;;3.13;100.00;100813.16;5052652;28;20124;-40
2022/12/08 06:20:28;;;;;;;3.75;1.02;;;;;;;3.13;100.00;100813.16;5053062;28;20127;-39
2022/12/08 06:22:54;;;;;;;4.72;0.82;;;;;;;3.12;100.00;100806.16;5053186;28;20032;-39
2022/12/08 06:25:20;;;;;;;7.40;0.70;;;;;;;3.14;100.00;100814.84;5053360;28;20033;-40
2022/12/08 06:27:45;;;;;;;2.38;0.68;;;;;;;3.16;100.00;100807.59;5052667;28;20049;-38
2022/12/08 06:30:11;;;;;;;4.97;0.47;;;;;;;3.15;100.00;100805.88;5060317;28;20078;-40
2022/12/08 06:32:36;;;;;;;5.32;0.60;;;;;;;3.15;100.00;100805.88;5072506;28;20120;-37
2022/12/08 06:35:02;;;;;;;6.93;1.10;;;;;;;3.15;100.00;100805.88;5072072;28;20431;-39
2022/12/08 06:37:27;;;;;;;3.60;0.65;;;;;;;3.17;100.00;100800.44;5071493;28;20055;-39
2022/12/08 06:39:53;;;;;;;3.05;0.75;;;;;;;3.16;100.00;100793.41;5071997;28;20563;-38
2022/12/08 06:45:02;;;;;;;2.88;0.63;;;;;;;3.16;100.00;100799.59;5073127;28;20063;-39
2022/12/08 06:47:28;;;;;;;3.40;0.68;;;;;;;3.16;100.00;100791.63;5072410;28;20425;-37
2022/12/08 06:49:53;;;;;;;5.60;0.75;;;;;;;3.17;100.00;100792.47;5069564;28;20052;-39
2022/12/08 06:52:18;;;;;;;0.88;0.43;;;;;;;3.16;100.00;100788.09;5052667;28;20098;-40
2022/12/08 06:54:44;;;;;;;7.32;1.23;;;;;;;3.11;100.00;100792.97;5052734;28;20036;-38
2022/12/08 06:57:09;;;;;;;7.80;1.10;;;;;;;3.06;100.00;100790.75;5064619;28;20112;-40
2022/12/08 06:59:35;;;;;;;6.40;1.15;;;;;;;3.06;100.00;100780.94;5071911;28;20029;-40
2022/12/08 07:02:00;;;;;;;11.00;2.10;;;;;;;3.07;100.00;100782.63;5069934;28;20078;-40
2022/12/08 07:04:26;;;;;;;7.10;1.40;;;;;;;3.02;100.00;100778.69;5050672;28;20035;-38
2022/12/08 07:06:51;;;;;;;14.77;2.42;;;;;;;3.04;100.00;100779.41;5052303;28;20043;-38
2022/12/08 07:09:17;;;;;;;5.40;1.58;;;;;;;3.05;100.00;100778.41;5051920;28;20032;-36
2022/12/08 07:11:42;;;;;;;9.48;2.10;;;;;;;3.06;100.00;100780.13;5053531;28;20025;-36
2022/12/08 07:14:07;;;;;;;7.40;1.20;;;;;;;3.06;100.00;100782.78;5052097;28;20029;-36
2022/12/08 07:16:33;;;;;;;2.78;1.30;;;;;;;3.05;100.00;100789.03;5059878;28;20111;-36
2022/12/08 07:18:59;;;;;;;5.25;0.57;;;;;;;3.01;100.00;100798.28;5072414;28;20349;-38
2022/12/08 07:21:24;;;;;;;1.95;0.90;;;;;;;3.00;100.00;100793.94;5072768;28;20044;-37
2022/12/08 07:23:50;;;;;;;8.18;0.70;;;;;;;2.96;100.00;100790.72;5072896;28;20379;-38
2022/12/08 07:26:15;;;;;;;5.50;0.80;;;;;;;2.95;100.00;100782.84;5070775;28;20108;-39
2022/12/08 07:28:41;;;;;;;5.43;0.93;;;;;;;2.95;100.00;100788.16;5071981;28;20420;-37
2022/12/08 07:31:14;;;;;;;4.32;0.88;;;;;;;2.95;100.00;100788.16;5071759;28;20329;-37
2022/12/08 07:33:40;;;;;;;8.00;1.02;;;;;;;2.97;100.00;100789.72;5072069;28;20025;-37
2022/12/08 07:36:06;;;;;;;3.30;1.00;;;;;;;3.01;100.00;100792.97;5071611;28;20074;-38
2022/12/08 07:38:31;;;;;;;15.20;1.30;;;;;;;3.02;100.00;100784.00;5073513;28;20024;-36
2022/12/08 07:40:57;;;;;;;42.55;2.58;;;;;;;3.04;100.00;100787.38;5074708;28;20376;-36
2022/12/08 07:43:23;;;;;;;5.80;1.10;;;;;;;3.06;100.00;100774.78;5075929;28;20334;-38
2022/12/08 07:45:49;;;;;;;8.20;1.17;;;;;;;3.03;100.00;100775.06;5074627;28;20029;-37
2022/12/08 07:48:15;;;;;;;5.75;1.10;;;;;;;3.04;100.00;100785.56;5073084;28;20051;-38
2022/12/08 07:50:40;;;;;;;2.55;0.70;;;;;;;3.03;100.00;100781.22;5072574;28;20471;-38
2022/12/08 07:53:06;;;;;;;3.78;0.95;;;;;;;3.01;100.00;100780.50;5072478;28;20173;-36
2022/12/08 07:55:31;;;;;;;11.57;0.90;;;;;;;2.99;100.00;100771.00;5072141;28;20032;-38
2022/12/08 07:57:56;;;;;;;6.00;1.00;;;;;;;2.96;100.00;100779.22;5072190;28;20048;-37
2022/12/08 08:00:22;;;;;;;4.97;0.88;;;;;;;2.95;100.00;100780.19;5071297;28;20107;-38
2022/12/08 08:02:47;;;;;;;6.30;1.27;;;;;;;2.97;100.00;100780.91;5071212;28;20491;-39
2022/12/08 08:05:13;;;;;;;4.85;0.55;;;;;;;2.95;100.00;100785.50;5071119;28;20111;-38
2022/12/08 08:07:43;;;;;;;4.35;0.75;;;;;;;2.97;100.00;100780.91;5069717;28;20097;-37
2022/12/08 08:10:10;;;;;;;2.38;0.68;;;;;;;2.99;100.00;100779.78;5070169;28;20060;-37
2022/12/08 08:12:36;;;;;;;8.32;1.10;;;;;;;3.00;100.00;100785.94;5071162;28;20028;-39
2022/12/08 08:15:03;;;;;;;4.72;1.05;;;;;;;3.03;100.00;100793.69;5071082;28;20405;-38
2022/12/08 08:17:29;;;;;;;6.53;0.90;;;;;;;3.06;100.00;100791.59;5070932;28;20483;-37
2022/12/08 08:19:55;;;;;;;3.33;0.68;;;;;;;3.05;100.00;100795.22;5070792;28;20024;-37
2022/12/08 08:22:20;;;;;;;9.50;0.90;;;;;;;3.03;100.00;100788.38;5070725;28;20032;-37
2022/12/08 08:24:45;;;;;;;7.68;0.77;;;;;;;2.91;100.00;100802.72;5070715;28;20032;-36
2022/12/08 08:27:11;;;;;;;8.15;0.55;;;;;;;2.91;100.00;100800.91;5070234;28;20051;-36
2022/12/08 08:29:36;;;;;;;7.80;1.05;;;;;;;2.94;100.00;100805.09;5070702;28;20112;-40
2022/12/08 08:32:02;;;;;;;13.25;1.55;;;;;;;2.92;100.00;100807.06;5070399;28;20098;-43
2022/12/08 08:34:27;;;;;;;7.80;1.08;;;;;;;2.96;100.00;100809.31;5069355;28;20059;-44
2022/12/08 08:36:52;;;;;;;2.95;0.80;;;;;;;3.05;100.00;100808.53;5070527;28;20016;-44
2022/12/08 08:39:17;;;;;;;5.60;1.00;;;;;;;3.09;100.00;100817.06;5070665;28;20104;-44
2022/12/08 08:41:43;;;;;;;4.70;0.77;;;;;;;3.07;100.00;100811.88;5070835;28;20056;-45
2022/12/08 08:44:08;;;;;;;1.30;0.50;;;;;;;2.99;100.00;100809.03;5071260;28;20110;-45
2022/12/08 08:46:34;;;;;;;6.18;0.50;;;;;;;2.89;100.00;100813.47;5070811;28;20398;-45
2022/12/08 08:48:59;;;;;;;5.90;0.52;;;;;;;2.76;100.00;100818.16;5071528;28;20035;-44
2022/12/08 08:51:24;;;;;;;6.25;0.52;;;;;;;2.70;100.00;100816.03;5070535;28;20033;-42
2022/12/08 08:53:50;;;;;;;2.92;0.70;;;;;;;2.74;100.00;100817.44;5070560;28;20388;-42
2022/12/08 08:56:20;;;;;;;2.00;0.52;;;;;;;2.72;100.00;100819.41;5070565;28;20025;-42
2022/12/08 08:58:47;;;;;;;3.97;0.75;;;;;;;2.74;100.00;100818.31;5065341;28;20028;-41
2022/12/08 09:01:21;;;;;;;5.18;0.57;;;;;;;2.77;100.00;100818.03;5050419;28;20029;-41
2022/12/08 09:03:47;;;;;;;5.15;0.70;;;;;;;2.77;100.00;100815.38;5050768;28;20032;-41
2022/12/08 09:06:13;;;;;;;2.63;0.60;;;;;;;2.79;100.00;100805.47;5050314;28;20040;-39
2022/12/08 09:08:39;;;;;;;2.72;0.40;;;;;;;2.83;100.00;100809.53;5050329;28;20024;-40
2022/12/08 09:11:04;;;;;;;5.40;0.63;;;;;;;2.80;100.00;100801.81;5050458;28;20025;-39
2022/12/08 09:13:30;;;;;;;3.35;0.30;;;;;;;2.78;100.00;100802.94;5050472;28;20037;-40
2022/12/08 09:15:55;;;;;;;0.95;0.60;;;;;;;2.84;100.00;100795.28;5050370;28;20175;-39
2022/12/08 09:18:20;;;;;;;4.40;0.50;;;;;;;2.86;100.00;100805.75;5050188;28;20083;-38
2022/12/08 09:20:46;;;;;;;4.75;0.70;;;;;;;2.88;100.00;100803.81;5050133;28;20524;-36
2022/12/08 09:23:11;;;;;;;3.30;0.45;;;;;;;2.78;100.00;100798.47;5050183;28;20472;-36
2022/12/08 09:25:37;;;;;;;3.08;0.70;;;;;;;2.77;100.00;100801.25;5050569;28;20033;-37
2022/12/08 09:28:02;;;;;;;1.02;0.47;;;;;;;2.80;100.00;100807.16;5049755;28;20041;-36
2022/12/08 09:30:27;;;;;;;2.85;0.50;;;;;;;2.86;100.00;100811.91;5050008;28;20022;-36
2022/12/08 09:32:53;;;;;;;4.25;0.68;;;;;;;2.88;100.00;100809.13;5049712;28;20052;-37
2022/12/08 09:35:18;;;;;;;3.80;0.80;;;;;;;2.97;100.00;100796.84;5050277;28;20025;-39
2022/12/08 09:37:43;;;;;;;1.67;0.40;;;;;;;2.97;100.00;100802.19;5049928;28;20025;-38
2022/12/08 09:40:14;;;;;;;2.53;0.52;;;;;;;2.90;100.00;100806.34;5049922;28;20108;-40
2022/12/08 09:42:57;;;;;;;2.78;0.60;;;;;;;2.83;100.00;100806.88;5049662;28;20219;-40
2022/12/08 09:45:25;;;;;;;2.53;0.70;;;;;;;2.88;100.00;100808.31;5057651;28;20032;-38
2022/12/08 09:48:09;;;;;;;;;;;;;;;2.94;100.00;100818.41;5068856;28;20020;-40
2022/12/08 09:50:40;;;;;;;3.92;0.80;;;;;;;3.04;100.00;100835.25;5046990;28;20003;-37
2022/12/08 09:53:12;;;;;;;7.65;1.00;;;;;;;3.08;100.00;100831.31;5047099;28;20112;-39
2022/12/08 09:55:39;;;;;;;8.27;1.25;;;;;;;3.07;100.00;100834.97;5047548;28;20185;-44
2022/12/08 09:58:13;;;;;;;12.63;1.45;;;;;;;3.02;100.00;100832.69;5049948;28;20574;-50
2022/12/08 10:00:38;;;;;;;10.10;3.60;;;;;;;3.02;100.00;100831.88;5050424;28;20033;-43
2022/12/08 10:03:08;;;;;;;11.70;4.25;;;;;;;2.99;100.00;100816.19;5051382;28;20028;-44
2022/12/08 10:05:36;;;;;;;4.72;2.33;;;;;;;3.06;100.00;100815.53;5053107;28;20464;-45
2022/12/08 10:08:18;;;;;;;9.35;2.45;;;;;;;2.98;100.00;100810.03;5053637;28;20450;-43
2022/12/08 10:10:57;;;;;;;6.72;2.40;;;;;;;2.98;100.00;100798.56;5052040;28;20033;-41
2022/12/08 10:13:28;;;;;;;6.05;1.35;;;;;;;2.92;100.00;100805.22;5053908;28;20028;-41
2022/12/08 10:15:57;;;;;;;6.05;1.65;;;;;;;2.84;100.00;100803.25;5051516;28;20025;-41
2022/12/08 10:18:26;;;;;;;8.70;2.30;;;;;;;2.94;100.00;100807.75;5053072;28;20663;-40
2022/12/08 10:20:53;;;;;;;8.32;1.85;;;;;;;2.95;100.00;100815.63;5051716;28;20105;-41
2022/12/08 10:23:32;;;;;;;5.75;1.50;;;;;;;2.98;100.00;100812.69;5051333;28;20044;-42
2022/12/08 10:26:03;;;;;;;5.15;1.50;;;;;;;2.97;100.00;100808.31;5051682;28;20036;-43
2022/12/08 10:28:29;;;;;;;6.22;1.67;;;;;;;2.94;100.00;100781.19;5052549;28;20055;-42
2022/12/08 10:30:54;;;;;;;7.85;1.45;;;;;;;2.86;100.00;100789.81;5051501;28;20051;-41
2022/12/08 10:33:21;;;;;;;3.45;1.20;;;;;;;2.90;100.00;100782.41;5052813;28;20032;-40
2022/12/08 10:35:49;;;;;;;4.40;0.90;;;;;;;2.89;100.00;100762.13;5052597;28;20526;-40
2022/12/08 10:38:37;;;;;;;3.03;0.70;;;;;;;2.85;100.00;100751.78;5052620;28;20035;-40
2022/12/08 10:41:08;;;;;;;9.77;1.05;;;;;;;2.80;100.00;100747.84;5072847;28;20027;-39
2022/12/08 10:43:35;;;;;;;1.63;0.60;;;;;;;2.80;100.00;100743.34;5062738;28;20057;-39
2022/12/08 10:46:10;;;;;;;3.45;0.65;;;;;;;2.73;100.00;100747.50;5054036;28;20104;-37
2022/12/08 10:48:36;;;;;;;5.93;0.73;;;;;;;2.85;100.00;100746.47;5062602;28;20029;-38
2022/12/08 10:51:04;;;;;;;2.60;0.80;;;;;;;2.99;100.00;100741.75;5060944;28;20399;-37
2022/12/08 10:53:32;;;;;;;;;;;;;;;3.01;100.00;100734.47;5058876;28;20033;-36
2022/12/08 10:56:00;;;;;;;1.48;0.55;;;;;;;3.04;100.00;100728.88;5054649;28;20423;-36
2022/12/08 10:58:39;;;;;;;3.75;0.80;;;;;;;3.07;100.00;100733.94;5061793;28;20463;-37
2022/12/08 11:01:20;;;;;;;2.75;0.68;;;;;;;2.93;100.00;100726.34;5066204;28;20037;-36
2022/12/08 11:03:54;;;;;;;6.57;0.90;;;;;;;2.95;100.00;100732.34;5055697;28;20174;-37
2022/12/08 11:06:29;;;;;;;2.10;1.00;;;;;;;2.81;100.00;100726.41;5060320;28;20024;-36
2022/12/08 11:08:56;;;;;;;1.98;1.05;;;;;;;2.76;100.00;100725.97;5082498;28;20046;-39
2022/12/08 11:11:37;;;;;;;1.90;0.85;;;;;;;2.69;100.00;100716.88;5078115;28;20064;-36
2022/12/08 11:14:06;;;;;;;1.95;0.88;;;;;;;2.74;100.00;100722.66;5062785;28;20164;-37
2022/12/08 11:16:32;;;;;;;3.03;1.00;;;;;;;2.71;100.00;100725.53;5076702;28;20050;-38
2022/12/08 11:18:57;;;;;;;3.80;0.95;;;;;;;2.71;100.00;100722.88;5078654;28;20488;-37
2022/12/08 11:21:34;;;;;;;1.83;1.10;;;;;;;2.73;100.00;100731.56;5072879;28;20051;-36
2022/12/08 11:24:10;;;;;;;4.10;1.20;;;;;;;2.70;100.00;100737.16;5051782;28;20476;-36
2022/12/08 11:26:36;;;;;;;4.97;1.55;;;;;;;2.82;100.00;100770.66;5066837;28;20077;-38
2022/12/08 11:29:02;;;;;;;6.38;1.20;;;;;;;2.82;100.00;100773.31;5053787;28;20478;-37
2022/12/08 11:31:33;;;;;;;3.63;1.88;;;;;;;2.71;100.00;100767.22;5046851;28;20032;-44
2022/12/08 11:33:59;;;;;;;4.85;1.52;;;;;;;2.55;100.00;100771.19;5070591;28;20021;-44